createdAt,value
2022-12-28T00:01:06.022Z,5.52
2022-12-28T00:02:09.277Z,5.52
2022-12-28T00:03:12.626Z,5.52
2022-12-28T00:04:16.019Z,5.51
2022-12-28T00:05:19.417Z,5.52
2022-12-28T00:06:24.423Z,5.53
2022-12-28T00:07:27.526Z,5.53
2022-12-28T00:08:31.190Z,5.54
2022-12-28T00:09:34.383Z,5.55
2022-12-28T00:11:07.995Z,5.54
2022-12-28T00:12:00.701Z,5.53
2022-12-28T00:13:04.008Z,5.54
2022-12-28T00:14:07.424Z,5.54
2022-12-28T00:15:10.852Z,5.54
2022-12-28T00:16:24.871Z,5.55
2022-12-28T00:17:28.095Z,5.56
2022-12-28T00:18:34.581Z,5.56
2022-12-28T00:19:37.817Z,5.58
2022-12-28T00:20:41.246Z,5.59
2022-12-28T00:21:45.911Z,5.60
2022-12-28T00:22:49.310Z,5.63
2022-12-28T00:23:57.278Z,5.64
2022-12-28T00:25:01.849Z,5.65
2022-12-28T00:26:09.936Z,5.66
2022-12-28T00:27:13.107Z,5.66
2022-12-28T00:28:16.175Z,5.65
2022-12-28T00:29:20.222Z,5.66
2022-12-28T00:30:23.483Z,5.67
2022-12-28T00:31:27.097Z,5.70
2022-12-28T00:32:33.528Z,5.70
2022-12-28T00:33:36.669Z,5.71
2022-12-28T00:34:40.669Z,5.71
2022-12-28T00:35:44.691Z,5.72
2022-12-28T00:37:09.378Z,5.73
2022-12-28T00:38:15.614Z,5.72
2022-12-28T00:39:20.247Z,5.73
2022-12-28T00:40:24.304Z,5.74
2022-12-28T00:41:27.529Z,5.74
2022-12-28T00:42:30.505Z,5.74
2022-12-28T00:43:33.981Z,5.73
2022-12-28T00:44:37.236Z,5.73
2022-12-28T00:45:40.413Z,5.73
2022-12-28T00:46:43.819Z,5.72
2022-12-28T00:47:47.696Z,5.72
2022-12-28T00:48:50.960Z,5.72
2022-12-28T00:49:54.035Z,5.71
2022-12-28T00:51:09.301Z,5.70
2022-12-28T00:52:12.634Z,5.67
2022-12-28T00:53:16.095Z,5.68
2022-12-28T00:54:20.838Z,5.68
2022-12-28T00:55:24.020Z,5.68
2022-12-28T00:56:27.107Z,5.67
2022-12-28T00:57:31.278Z,5.66
2022-12-28T00:58:34.852Z,5.65
2022-12-28T00:59:38.075Z,5.65
2022-12-28T01:00:41.284Z,5.65
2022-12-28T01:01:44.518Z,5.64
2022-12-28T01:02:48.031Z,5.63
2022-12-28T01:03:51.940Z,5.64
2022-12-28T01:04:54.916Z,5.63
2022-12-28T01:05:58.313Z,5.63
2022-12-28T01:07:01.347Z,5.63
2022-12-28T01:08:07.679Z,5.61
2022-12-28T01:09:10.827Z,5.60
2022-12-28T01:10:14.096Z,5.60
2022-12-28T01:11:20.814Z,5.62
2022-12-28T01:12:23.869Z,5.61
2022-12-28T01:13:27.170Z,5.60
2022-12-28T01:14:30.250Z,5.60
2022-12-28T01:15:33.502Z,5.61
2022-12-28T01:16:37.160Z,5.63
2022-12-28T01:17:40.617Z,5.63
2022-12-28T01:18:45.219Z,5.63
2022-12-28T01:19:53.710Z,5.63
2022-12-28T01:20:57.319Z,5.62
2022-12-28T01:22:00.275Z,5.63
2022-12-28T01:23:03.364Z,5.62
2022-12-28T01:24:10.227Z,5.63
2022-12-28T01:25:13.803Z,5.64
2022-12-28T01:26:16.906Z,5.66
2022-12-28T01:27:21.415Z,5.66
2022-12-28T01:28:24.456Z,5.65
2022-12-28T01:29:27.654Z,5.66
2022-12-28T01:30:31.694Z,5.66
2022-12-28T01:31:35.335Z,5.67
2022-12-28T01:32:38.600Z,5.66
2022-12-28T01:33:42.732Z,5.66
2022-12-28T01:34:45.955Z,5.66
2022-12-28T01:35:48.991Z,5.67
2022-12-28T01:36:52.007Z,5.68
2022-12-28T01:37:57.093Z,5.69
2022-12-28T01:39:03.876Z,5.70
2022-12-28T01:40:10.045Z,5.72
2022-12-28T01:41:18.599Z,5.73
2022-12-28T01:42:21.641Z,5.75
2022-12-28T01:43:39.574Z,5.76
2022-12-28T01:44:45.528Z,5.76
2022-12-28T01:45:52.790Z,5.75
2022-12-28T01:47:02.974Z,5.76
2022-12-28T01:48:16.604Z,5.77
2022-12-28T01:49:28.819Z,5.78
2022-12-28T01:50:32.089Z,5.80
2022-12-28T01:51:50.225Z,5.78
2022-12-28T01:52:57.487Z,5.78
2022-12-28T01:54:04.514Z,5.78
2022-12-28T01:55:35.186Z,5.77
2022-12-28T01:56:39.697Z,5.76
2022-12-28T01:58:05.838Z,5.75
2022-12-28T01:59:10.326Z,5.75
2022-12-28T02:00:15.779Z,5.76
2022-12-28T02:01:21.774Z,5.77
2022-12-28T02:02:25.180Z,5.78
2022-12-28T02:03:32.856Z,5.79
2022-12-28T02:04:36.070Z,5.78
2022-12-28T02:05:42.521Z,5.79
2022-12-28T02:06:46.720Z,5.81
2022-12-28T02:07:57.932Z,5.81
2022-12-28T02:09:10.264Z,5.81
2022-12-28T02:10:42.371Z,5.83
2022-12-28T02:11:38.514Z,5.83
2022-12-28T02:12:43.786Z,5.84
2022-12-28T02:13:50.123Z,5.85
2022-12-28T02:14:54.263Z,5.87
2022-12-28T02:15:57.467Z,5.89
2022-12-28T02:17:00.854Z,5.91
2022-12-28T02:18:04.437Z,5.91
2022-12-28T02:19:09.801Z,5.93
2022-12-28T02:20:14.371Z,5.93
2022-12-28T02:21:39.453Z,5.92
2022-12-28T02:23:21.046Z,5.91
2022-12-28T02:25:12.831Z,5.93
2022-12-28T02:26:26.964Z,5.91
2022-12-28T02:27:54.829Z,5.93
2022-12-28T02:29:23.877Z,5.94
2022-12-28T02:32:49.450Z,5.95
2022-12-28T02:34:02.603Z,5.96
2022-12-28T02:35:08.764Z,5.98
2022-12-28T02:36:19.321Z,5.97
2022-12-28T02:37:27.162Z,5.97
2022-12-28T02:38:36.947Z,5.96
2022-12-28T02:39:47.302Z,5.97
2022-12-28T02:41:00.230Z,5.98
2022-12-28T02:42:05.162Z,5.99
2022-12-28T02:43:09.143Z,5.99
2022-12-28T02:44:33.228Z,6.00
2022-12-28T02:46:00.914Z,6.01
2022-12-28T02:47:23.524Z,6.01
2022-12-28T02:48:45.242Z,5.98
2022-12-28T02:50:06.902Z,5.98
2022-12-28T02:51:56.995Z,5.97
2022-12-28T02:53:30.469Z,5.96
2022-12-28T02:55:29.315Z,5.96
2022-12-28T02:56:55.721Z,5.92
2022-12-28T02:58:18.820Z,5.90
2022-12-28T02:59:55.057Z,5.91
2022-12-28T03:01:10.241Z,5.91
2022-12-28T03:02:25.918Z,5.95
2022-12-28T03:03:48.143Z,5.97
2022-12-28T03:05:19.123Z,5.98
2022-12-28T03:07:03.361Z,6.00
2022-12-28T03:08:20.206Z,6.02
2022-12-28T03:09:36.987Z,6.02
2022-12-28T03:10:50.001Z,6.02
2022-12-28T03:12:04.405Z,6.02
2022-12-28T03:13:34.310Z,6.03
2022-12-28T03:14:49.294Z,6.05
2022-12-28T03:15:53.161Z,6.06
2022-12-28T03:17:19.647Z,6.06
2022-12-28T03:18:42.245Z,6.03
2022-12-28T03:20:15.523Z,6.00
2022-12-28T03:21:39.200Z,5.99
2022-12-28T03:23:04.626Z,5.97
2022-12-28T03:24:28.983Z,5.93
2022-12-28T03:25:56.867Z,5.91
2022-12-28T03:27:28.341Z,5.91
2022-12-28T03:28:55.795Z,5.90
2022-12-28T03:30:24.641Z,5.88
2022-12-28T03:31:29.159Z,5.86
2022-12-28T03:32:35.625Z,5.86
2022-12-28T03:33:46.701Z,5.86
2022-12-28T03:34:50.013Z,5.86
2022-12-28T03:36:02.766Z,5.85
2022-12-28T03:37:29.560Z,5.85
2022-12-28T03:38:48.425Z,5.82
2022-12-28T03:39:53.355Z,5.83
2022-12-28T03:41:10.917Z,5.82
2022-12-28T03:42:37.467Z,5.83
2022-12-28T03:43:51.630Z,5.84
2022-12-28T03:45:06.938Z,5.82
2022-12-28T03:46:14.298Z,5.81
2022-12-28T03:47:21.002Z,5.80
2022-12-28T03:48:25.216Z,5.77
2022-12-28T03:49:29.036Z,5.78
2022-12-28T03:50:38.374Z,5.78
2022-12-28T03:51:45.267Z,5.78
2022-12-28T03:52:49.578Z,5.77
2022-12-28T03:53:52.718Z,5.75
2022-12-28T03:54:57.603Z,5.73
2022-12-28T03:56:12.072Z,5.73
2022-12-28T03:57:17.093Z,5.71
2022-12-28T03:58:22.023Z,5.71
2022-12-28T03:59:26.033Z,5.70
2022-12-28T04:00:29.258Z,5.68
2022-12-28T04:01:32.463Z,5.67
2022-12-28T04:02:35.873Z,5.66
2022-12-28T04:03:39.932Z,5.67
2022-12-28T04:04:42.970Z,5.65
2022-12-28T04:05:46.248Z,5.62
2022-12-28T04:06:49.418Z,5.60
2022-12-28T04:07:52.758Z,5.59
2022-12-28T04:08:55.745Z,5.59
2022-12-28T04:09:59.361Z,5.55
2022-12-28T04:11:02.695Z,5.54
2022-12-28T04:12:06.713Z,5.53
2022-12-28T04:13:39.186Z,5.51
2022-12-28T04:14:44.270Z,5.52
2022-12-28T04:15:59.350Z,5.52
2022-12-28T04:17:02.888Z,5.52
2022-12-28T04:18:06.653Z,5.52
2022-12-28T04:19:10.527Z,5.49
2022-12-28T04:20:13.633Z,5.48
2022-12-28T04:21:16.830Z,5.47
2022-12-28T04:22:20.950Z,5.48
2022-12-28T04:23:24.727Z,5.46
2022-12-28T04:24:36.738Z,5.46
2022-12-28T04:25:41.268Z,5.44
2022-12-28T04:26:45.503Z,5.43
2022-12-28T04:27:49.946Z,5.41
2022-12-28T04:29:12.918Z,5.39
2022-12-28T04:30:44.813Z,5.34
2022-12-28T04:31:48.422Z,5.33
2022-12-28T04:32:55.734Z,5.33
2022-12-28T04:34:00.456Z,5.33
2022-12-28T04:35:05.724Z,5.31
2022-12-28T04:36:14.710Z,5.28
2022-12-28T04:37:18.239Z,5.27
2022-12-28T04:38:21.818Z,5.28
2022-12-28T04:39:24.864Z,5.27
2022-12-28T04:40:27.980Z,5.26
2022-12-28T04:41:31.302Z,5.27
2022-12-28T04:42:34.335Z,5.24
2022-12-28T04:43:39.005Z,5.22
2022-12-28T04:44:42.094Z,5.20
2022-12-28T04:45:55.729Z,5.20
2022-12-28T04:46:59.247Z,5.18
2022-12-28T04:48:02.706Z,5.16
2022-12-28T04:49:05.794Z,5.16
2022-12-28T04:50:09.397Z,5.16
2022-12-28T04:51:22.187Z,5.14
2022-12-28T04:52:25.298Z,5.12
2022-12-28T04:53:28.334Z,5.11
2022-12-28T04:54:31.321Z,5.11
2022-12-28T04:55:35.210Z,5.10
2022-12-28T04:56:38.337Z,5.08
2022-12-28T04:57:44.114Z,5.05
2022-12-28T04:58:48.118Z,5.04
2022-12-28T04:59:51.363Z,5.03
2022-12-28T05:00:54.425Z,5.03
2022-12-28T05:01:57.598Z,5.01
2022-12-28T05:03:00.997Z,5.01
2022-12-28T05:04:05.822Z,5.01
2022-12-28T05:05:09.355Z,5.00
2022-12-28T05:06:17.760Z,4.99
2022-12-28T05:07:20.755Z,4.99
2022-12-28T05:08:24.065Z,4.98
2022-12-28T05:09:27.076Z,4.96
2022-12-28T05:10:30.259Z,4.94
2022-12-28T05:11:33.365Z,4.92
2022-12-28T05:12:36.445Z,4.90
2022-12-28T05:13:39.638Z,4.88
2022-12-28T05:14:42.982Z,4.86
2022-12-28T05:15:46.173Z,4.85
2022-12-28T05:16:52.322Z,4.84
2022-12-28T05:17:56.014Z,4.83
2022-12-28T05:18:59.236Z,4.80
2022-12-28T05:20:03.639Z,4.78
2022-12-28T05:21:10.070Z,4.77
2022-12-28T05:22:15.514Z,4.77
2022-12-28T05:23:18.656Z,4.75
2022-12-28T05:24:22.720Z,4.75
2022-12-28T05:25:25.953Z,4.75
2022-12-28T05:26:30.009Z,4.75
2022-12-28T05:27:33.190Z,4.73
2022-12-28T05:28:36.239Z,4.71
2022-12-28T05:29:39.369Z,4.70
2022-12-28T05:30:42.420Z,4.69
2022-12-28T05:31:45.794Z,4.68
2022-12-28T05:32:48.859Z,4.67
2022-12-28T05:33:52.817Z,4.67
2022-12-28T05:34:55.832Z,4.64
2022-12-28T05:36:06.828Z,4.60
2022-12-28T05:37:09.959Z,4.61
2022-12-28T05:38:13.056Z,4.59
2022-12-28T05:39:16.141Z,4.60
2022-12-28T05:40:20.352Z,4.58
2022-12-28T05:41:26.474Z,4.58
2022-12-28T05:42:29.695Z,4.57
2022-12-28T05:43:33.238Z,4.56
2022-12-28T05:44:36.275Z,4.56
2022-12-28T05:45:40.065Z,4.56
2022-12-28T05:46:43.127Z,4.55
2022-12-28T05:47:46.102Z,4.55
2022-12-28T05:48:49.076Z,4.54
2022-12-28T05:49:52.017Z,4.55
2022-12-28T05:50:59.662Z,4.55
2022-12-28T05:52:02.780Z,4.54
2022-12-28T05:53:06.000Z,4.55
2022-12-28T05:54:08.973Z,4.55
2022-12-28T05:55:11.919Z,4.54
2022-12-28T05:56:21.145Z,4.55
2022-12-28T05:57:24.358Z,4.57
2022-12-28T05:58:27.470Z,4.58
2022-12-28T05:59:30.498Z,4.60
2022-12-28T06:00:33.621Z,4.61
2022-12-28T06:01:40.283Z,4.64
2022-12-28T06:02:43.758Z,4.64
2022-12-28T06:03:51.964Z,4.65
2022-12-28T06:04:55.004Z,4.65
2022-12-28T06:06:02.261Z,4.64
2022-12-28T06:07:05.305Z,4.67
2022-12-28T06:08:08.339Z,4.69
2022-12-28T06:09:11.460Z,4.70
2022-12-28T06:10:14.410Z,4.72
2022-12-28T06:11:21.158Z,4.73
2022-12-28T06:12:24.645Z,4.74
2022-12-28T06:13:28.113Z,4.76
2022-12-28T06:14:31.571Z,4.78
2022-12-28T06:15:34.617Z,4.78
2022-12-28T06:16:40.716Z,4.81
2022-12-28T06:17:43.993Z,4.83
2022-12-28T06:18:47.390Z,4.84
2022-12-28T06:19:50.416Z,4.88
2022-12-28T06:20:57.016Z,4.89
2022-12-28T06:22:00.412Z,4.90
2022-12-28T06:23:03.751Z,4.90
2022-12-28T06:24:08.101Z,4.91
2022-12-28T06:25:11.116Z,4.93
2022-12-28T06:26:16.897Z,4.95
2022-12-28T06:27:20.230Z,4.95
2022-12-28T06:28:23.328Z,4.95
2022-12-28T06:29:27.167Z,4.97
2022-12-28T06:30:30.729Z,4.97
2022-12-28T06:31:37.373Z,4.96
2022-12-28T06:32:40.565Z,4.98
2022-12-28T06:33:47.962Z,4.99
2022-12-28T06:34:51.171Z,5.01
2022-12-28T06:35:54.926Z,5.03
2022-12-28T06:37:00.237Z,5.04
2022-12-28T06:38:03.284Z,5.04
2022-12-28T06:39:09.559Z,5.05
2022-12-28T06:40:12.998Z,5.06
2022-12-28T06:41:17.771Z,5.07
2022-12-28T06:42:20.812Z,5.07
2022-12-28T06:43:23.921Z,5.07
2022-12-28T06:44:27.037Z,5.07
2022-12-28T06:45:30.239Z,5.09
2022-12-28T06:46:33.595Z,5.09
2022-12-28T06:47:37.774Z,5.09
2022-12-28T06:48:42.168Z,5.11
2022-12-28T06:49:45.548Z,5.11
2022-12-28T06:50:59.265Z,5.11
2022-12-28T06:52:02.680Z,5.10
2022-12-28T06:53:05.782Z,5.09
2022-12-28T06:54:09.813Z,5.08
2022-12-28T06:55:13.230Z,5.10
2022-12-28T06:56:20.962Z,5.10
2022-12-28T06:57:24.239Z,5.09
2022-12-28T06:58:29.422Z,5.08
2022-12-28T06:59:32.600Z,5.08
2022-12-28T07:00:35.833Z,5.09
2022-12-28T07:01:44.911Z,5.09
2022-12-28T07:02:49.224Z,5.09
2022-12-28T07:03:55.095Z,5.08
2022-12-28T07:04:58.174Z,5.08
2022-12-28T07:06:02.590Z,5.07
2022-12-28T07:07:05.669Z,5.07
2022-12-28T07:08:12.520Z,5.07
2022-12-28T07:09:16.483Z,5.07
2022-12-28T07:10:19.742Z,5.07
2022-12-28T07:11:22.879Z,5.06
2022-12-28T07:12:26.238Z,5.06
2022-12-28T07:13:29.837Z,5.06
2022-12-28T07:14:33.203Z,5.05
2022-12-28T07:15:36.933Z,5.05
2022-12-28T07:17:42.014Z,5.04
2022-12-28T07:18:45.846Z,5.04
2022-12-28T07:19:48.870Z,5.05
2022-12-28T07:20:51.997Z,5.04
2022-12-28T07:21:55.720Z,5.03
2022-12-28T07:22:58.755Z,5.03
2022-12-28T07:24:03.523Z,5.04
2022-12-28T07:25:07.358Z,5.07
2022-12-28T07:26:16.512Z,5.07
2022-12-28T07:27:19.544Z,5.06
2022-12-28T07:28:22.923Z,5.07
2022-12-28T07:29:26.140Z,5.07
2022-12-28T07:30:29.255Z,5.08
2022-12-28T07:31:43.661Z,5.07
2022-12-28T07:32:48.482Z,5.07
2022-12-28T07:33:53.880Z,5.05
2022-12-28T07:34:56.935Z,5.06
2022-12-28T07:36:00.129Z,5.08
2022-12-28T07:37:03.236Z,5.08
2022-12-28T07:38:06.329Z,5.07
2022-12-28T07:39:10.500Z,5.06
2022-12-28T07:40:13.723Z,5.07
2022-12-28T07:41:33.004Z,5.07
2022-12-28T07:42:36.296Z,5.07
2022-12-28T07:43:39.999Z,5.09
2022-12-28T07:44:49.075Z,5.09
2022-12-28T07:46:11.080Z,5.10
2022-12-28T07:47:15.001Z,5.11
2022-12-28T07:48:18.095Z,5.10
2022-12-28T07:49:21.467Z,5.11
2022-12-28T07:50:24.570Z,5.09
2022-12-28T07:51:32.945Z,5.07
2022-12-28T07:52:37.231Z,5.06
2022-12-28T07:53:41.566Z,5.07
2022-12-28T07:54:44.878Z,5.07
2022-12-28T07:55:58.436Z,5.06
2022-12-28T07:57:01.495Z,5.03
2022-12-28T07:58:04.684Z,5.03
2022-12-28T07:59:07.761Z,5.04
2022-12-28T08:00:11.546Z,5.04
2022-12-28T08:01:19.842Z,5.07
2022-12-28T08:02:23.587Z,5.08
2022-12-28T08:03:26.909Z,5.07
2022-12-28T08:04:30.110Z,5.07
2022-12-28T08:05:33.584Z,5.07
2022-12-28T08:06:39.941Z,5.07
2022-12-28T08:07:43.117Z,5.08
2022-12-28T08:08:48.551Z,5.06
2022-12-28T08:09:51.616Z,5.06
2022-12-28T08:10:55.227Z,5.04
2022-12-28T08:11:58.424Z,5.05
2022-12-28T08:13:02.206Z,5.06
2022-12-28T08:14:06.307Z,5.06
2022-12-28T08:15:09.757Z,5.05
2022-12-28T08:16:15.787Z,5.05
2022-12-28T08:17:21.234Z,5.07
2022-12-28T08:18:24.570Z,5.08
2022-12-28T08:19:27.655Z,5.07
2022-12-28T08:20:31.197Z,5.08
2022-12-28T08:21:38.294Z,5.09
2022-12-28T08:22:41.322Z,5.08
2022-12-28T08:23:45.070Z,5.07
2022-12-28T08:24:48.110Z,5.06
2022-12-28T08:25:51.208Z,5.06
2022-12-28T08:26:54.514Z,5.06
2022-12-28T08:27:57.631Z,5.07
2022-12-28T08:29:02.577Z,5.03
2022-12-28T08:30:06.400Z,5.02
2022-12-28T08:31:12.859Z,4.99
2022-12-28T08:32:16.015Z,5.01
2022-12-28T08:33:19.044Z,5.02
2022-12-28T08:34:27.498Z,5.03
2022-12-28T08:35:30.825Z,5.06
2022-12-28T08:36:34.921Z,5.04
2022-12-28T08:37:38.226Z,5.02
2022-12-28T08:38:43.278Z,5.01
2022-12-28T08:39:46.665Z,5.04
2022-12-28T08:41:01.182Z,5.04
2022-12-28T08:42:04.173Z,5.01
2022-12-28T08:43:07.323Z,5.02
2022-12-28T08:44:10.835Z,5.03
2022-12-28T08:45:14.111Z,5.05
2022-12-28T08:46:18.629Z,5.05
2022-12-28T08:47:21.999Z,5.06
2022-12-28T08:48:26.032Z,5.05
2022-12-28T08:49:29.076Z,5.06
2022-12-28T08:50:33.248Z,5.07
2022-12-28T08:51:42.016Z,5.08
2022-12-28T08:52:45.784Z,5.07
2022-12-28T08:53:49.376Z,5.05
2022-12-28T08:54:52.469Z,5.04
2022-12-28T08:55:55.558Z,5.04
2022-12-28T08:56:58.602Z,5.06
2022-12-28T08:58:01.683Z,5.05
2022-12-28T08:59:05.999Z,5.07
2022-12-28T09:00:10.386Z,5.07
2022-12-28T09:01:19.313Z,5.08
2022-12-28T09:02:22.808Z,5.09
2022-12-28T09:03:26.072Z,5.10
2022-12-28T09:04:29.686Z,5.09
2022-12-28T09:05:39.229Z,5.11
2022-12-28T09:06:45.679Z,5.12
2022-12-28T09:07:48.856Z,5.14
2022-12-28T09:09:05.350Z,5.13
2022-12-28T09:10:10.323Z,5.15
2022-12-28T09:11:14.080Z,5.16
2022-12-28T09:12:17.564Z,5.15
2022-12-28T09:13:22.148Z,5.17
2022-12-28T09:14:25.329Z,5.17
2022-12-28T09:15:28.666Z,5.21
2022-12-28T09:16:32.540Z,5.20
2022-12-28T09:17:36.482Z,5.21
2022-12-28T09:18:45.667Z,5.24
2022-12-28T09:19:48.838Z,5.26
2022-12-28T09:20:52.780Z,5.28
2022-12-28T09:21:55.836Z,5.29
2022-12-28T09:22:59.776Z,5.28
2022-12-28T09:24:04.449Z,5.28
2022-12-28T09:25:07.904Z,5.28
2022-12-28T09:29:56.424Z,5.32
2022-12-28T09:31:05.398Z,5.34
2022-12-28T09:32:08.750Z,5.33
2022-12-28T09:33:30.821Z,5.35
2022-12-28T09:34:37.897Z,5.36
2022-12-28T09:35:42.565Z,5.34
2022-12-28T09:36:46.607Z,5.33
2022-12-28T09:37:49.727Z,5.35
2022-12-28T09:38:53.394Z,5.34
2022-12-28T09:40:01.264Z,5.36
2022-12-28T09:41:15.370Z,5.35
2022-12-28T09:42:24.526Z,5.33
2022-12-28T09:43:28.193Z,5.33
2022-12-28T09:44:51.880Z,5.34
2022-12-28T09:45:55.461Z,5.35
2022-12-28T09:47:28.184Z,5.36
2022-12-28T09:48:31.701Z,5.32
2022-12-28T09:50:02.086Z,5.33
2022-12-28T09:51:05.440Z,5.34
2022-12-28T09:52:27.509Z,5.35
2022-12-28T09:53:34.719Z,5.40
2022-12-28T09:54:39.669Z,5.41
2022-12-28T09:55:59.723Z,5.43
2022-12-28T09:57:02.917Z,5.46
2022-12-28T09:58:14.444Z,5.47
2022-12-28T09:59:23.174Z,5.49
2022-12-28T10:00:38.983Z,5.51
2022-12-28T10:01:44.051Z,5.48
2022-12-28T10:03:14.921Z,5.48
2022-12-28T10:04:20.223Z,5.50
2022-12-28T10:05:27.997Z,5.51
2022-12-28T10:06:36.938Z,5.54
2022-12-28T10:07:39.990Z,5.54
2022-12-28T10:09:09.052Z,5.55
2022-12-28T10:10:22.482Z,5.55
2022-12-28T10:11:33.548Z,5.55
2022-12-28T10:12:36.666Z,5.60
2022-12-28T10:13:56.677Z,5.63
2022-12-28T10:15:01.194Z,5.66
2022-12-28T10:16:21.674Z,5.67
2022-12-28T10:17:30.555Z,5.70
2022-12-28T10:18:39.341Z,5.71
2022-12-28T10:19:47.106Z,5.72
2022-12-28T10:20:50.650Z,5.75
2022-12-28T10:22:03.437Z,5.76
2022-12-28T10:23:07.273Z,5.79
2022-12-28T10:24:31.019Z,5.82
2022-12-28T10:25:34.967Z,5.82
2022-12-28T10:26:39.039Z,5.84
2022-12-28T10:27:43.068Z,5.86
2022-12-28T10:28:52.378Z,5.88
2022-12-28T10:29:55.540Z,5.89
2022-12-28T10:31:08.391Z,5.89
2022-12-28T10:32:14.640Z,5.91
2022-12-28T10:33:19.714Z,5.96
2022-12-28T10:34:22.866Z,5.95
2022-12-28T10:35:50.071Z,5.95
2022-12-28T10:36:55.521Z,5.95
2022-12-28T10:38:29.225Z,5.94
2022-12-28T10:39:34.213Z,5.90
2022-12-28T10:40:41.871Z,5.92
2022-12-28T10:41:45.782Z,5.95
2022-12-28T10:42:52.560Z,5.96
2022-12-28T10:44:29.393Z,5.96
2022-12-28T10:45:24.070Z,5.98
2022-12-28T10:46:27.388Z,6.01
2022-12-28T10:47:35.994Z,6.01
2022-12-28T10:48:39.873Z,6.03
2022-12-28T10:50:18.476Z,6.03
2022-12-28T10:51:17.884Z,6.05
2022-12-28T10:52:21.982Z,6.07
2022-12-28T10:54:27.573Z,6.07
2022-12-28T10:55:33.584Z,6.10
2022-12-28T10:56:48.860Z,6.08
2022-12-28T10:58:27.533Z,6.05
2022-12-28T10:59:41.213Z,6.05
2022-12-28T11:00:56.154Z,6.06
2022-12-28T11:02:34.709Z,6.06
2022-12-28T11:03:41.074Z,6.03
2022-12-28T11:05:04.181Z,6.05
2022-12-28T11:06:09.657Z,6.09
2022-12-28T11:07:45.753Z,6.08
2022-12-28T11:09:27.293Z,6.09
2022-12-28T11:10:32.447Z,6.10
2022-12-28T11:11:35.562Z,6.08
2022-12-28T11:12:43.607Z,6.09
2022-12-28T11:13:53.538Z,6.10
2022-12-28T11:14:56.683Z,6.12
2022-12-28T11:16:13.252Z,6.13
2022-12-28T11:17:20.788Z,6.14
2022-12-28T11:18:24.239Z,6.14
2022-12-28T11:19:27.302Z,6.17
2022-12-28T11:20:39.895Z,6.19
2022-12-28T11:21:44.622Z,6.20
2022-12-28T11:22:48.174Z,6.21
2022-12-28T11:23:52.924Z,6.23
2022-12-28T11:25:19.181Z,6.25
2022-12-28T11:26:24.869Z,6.24
2022-12-28T11:27:30.076Z,6.23
2022-12-28T11:28:33.118Z,6.23
2022-12-28T11:29:38.075Z,6.26
2022-12-28T11:30:41.570Z,6.27
2022-12-28T11:32:02.535Z,6.29
2022-12-28T11:33:10.080Z,6.32
2022-12-28T11:34:20.047Z,6.34
2022-12-28T11:35:27.628Z,6.35
2022-12-28T11:36:37.352Z,6.38
2022-12-28T11:37:49.702Z,6.41
2022-12-28T11:38:55.341Z,6.45
2022-12-28T11:39:59.049Z,6.47
2022-12-28T11:41:02.237Z,6.47
2022-12-28T11:43:29.311Z,6.52
2022-12-28T11:44:32.768Z,6.52
2022-12-28T11:45:54.180Z,6.55
2022-12-28T11:47:04.974Z,6.58
2022-12-28T11:48:42.496Z,6.61
2022-12-28T11:49:48.382Z,6.64
2022-12-28T11:50:54.201Z,6.68
2022-12-28T11:52:31.003Z,6.72
2022-12-28T11:53:34.049Z,6.78
2022-12-28T11:54:51.751Z,6.81
2022-12-28T11:56:16.265Z,6.82
2022-12-28T11:57:40.906Z,6.87
2022-12-28T11:58:47.719Z,6.88
2022-12-28T11:59:50.830Z,6.89
2022-12-28T12:00:53.925Z,6.92
2022-12-28T12:02:19.919Z,6.94
2022-12-28T12:03:58.695Z,6.95
2022-12-28T12:05:37.232Z,6.97
2022-12-28T12:06:45.271Z,6.94
2022-12-28T12:07:48.785Z,6.95
2022-12-28T12:08:52.450Z,6.95
2022-12-28T12:10:31.922Z,6.97
2022-12-28T12:11:40.489Z,6.96
2022-12-28T12:12:49.648Z,6.97
2022-12-28T12:13:54.670Z,6.96
2022-12-28T12:15:03.726Z,6.94
2022-12-28T12:16:19.342Z,6.92
2022-12-28T12:17:35.710Z,6.90
2022-12-28T12:19:00.824Z,6.90
2022-12-28T12:20:35.754Z,6.89
2022-12-28T12:21:45.846Z,6.87
2022-12-28T12:23:28.076Z,6.91
2022-12-28T12:24:41.550Z,6.94
2022-12-28T12:25:49.173Z,6.94
2022-12-28T12:27:12.285Z,6.93
2022-12-28T12:28:39.332Z,6.93
2022-12-28T12:29:57.134Z,6.93
2022-12-28T12:31:04.487Z,6.94
2022-12-28T12:32:15.828Z,6.94
2022-12-28T12:33:26.954Z,6.95
2022-12-28T12:35:04.962Z,6.96
2022-12-28T12:36:36.926Z,6.97
2022-12-28T12:38:29.157Z,6.97
2022-12-28T12:40:09.764Z,6.95
2022-12-28T12:41:54.824Z,6.97
2022-12-28T12:43:29.376Z,6.98
2022-12-28T12:45:03.556Z,6.95
2022-12-28T12:46:31.298Z,6.96
2022-12-28T12:48:14.182Z,6.98
2022-12-28T12:49:55.496Z,6.99
2022-12-28T12:51:22.335Z,7.00
2022-12-28T12:53:01.422Z,6.99
2022-12-28T12:54:35.224Z,6.97
2022-12-28T12:56:05.584Z,6.99
2022-12-28T12:57:30.451Z,7.00
2022-12-28T12:58:42.133Z,7.02
2022-12-28T13:00:12.699Z,7.05
2022-12-28T13:01:46.181Z,7.05
2022-12-28T13:03:14.674Z,7.04
2022-12-28T13:04:25.705Z,7.05
2022-12-28T13:05:30.540Z,7.05
2022-12-28T13:06:36.004Z,7.07
2022-12-28T13:07:40.268Z,7.09
2022-12-28T13:09:03.308Z,7.08
2022-12-28T13:10:16.107Z,7.07
2022-12-28T13:11:20.878Z,7.07
2022-12-28T13:12:25.013Z,7.09
2022-12-28T13:13:37.544Z,7.08
2022-12-28T13:14:47.434Z,7.11
2022-12-28T13:15:50.614Z,7.11
2022-12-28T13:16:56.818Z,7.11
2022-12-28T13:19:33.054Z,7.09
2022-12-28T13:20:36.164Z,7.10
2022-12-28T13:21:43.114Z,7.11
2022-12-28T13:22:48.371Z,7.10
2022-12-28T13:23:52.546Z,7.10
2022-12-28T13:24:55.628Z,7.09
2022-12-28T13:26:01.157Z,7.09
2022-12-28T13:27:18.966Z,7.11
2022-12-28T13:28:32.909Z,7.13
2022-12-28T13:29:40.028Z,7.16
2022-12-28T13:30:55.512Z,7.18
2022-12-28T13:31:58.934Z,7.18
2022-12-28T13:33:04.870Z,7.16
2022-12-28T13:34:28.028Z,7.16
2022-12-28T13:35:41.168Z,7.16
2022-12-28T13:37:00.126Z,7.17
2022-12-28T13:38:15.082Z,7.16
2022-12-28T13:39:42.360Z,7.17
2022-12-28T13:40:53.493Z,7.16
2022-12-28T13:42:03.757Z,7.15
2022-12-28T13:43:25.422Z,7.16
2022-12-28T13:44:38.431Z,7.19
2022-12-28T13:45:46.217Z,7.15
2022-12-28T13:47:24.755Z,7.14
2022-12-28T13:48:28.982Z,7.13
2022-12-28T13:49:50.879Z,7.14
2022-12-28T13:50:55.208Z,7.15
2022-12-28T13:51:58.895Z,7.15
2022-12-28T13:53:17.949Z,7.14
2022-12-28T13:54:25.079Z,7.18
2022-12-28T13:55:37.348Z,7.17
2022-12-28T13:56:44.427Z,7.14
2022-12-28T13:57:57.313Z,7.15
2022-12-28T13:59:07.772Z,7.15
2022-12-28T14:00:11.650Z,7.16
2022-12-28T14:01:22.855Z,7.16
2022-12-28T14:02:29.095Z,7.16
2022-12-28T14:03:39.386Z,7.14
2022-12-28T14:04:53.036Z,7.15
2022-12-28T14:06:00.257Z,7.17
2022-12-28T14:07:03.678Z,7.17
2022-12-28T14:08:07.267Z,7.17
2022-12-28T14:09:12.895Z,7.19
2022-12-28T14:10:16.753Z,7.21
2022-12-28T14:11:20.490Z,7.20
2022-12-28T14:12:24.932Z,7.18
2022-12-28T14:13:31.151Z,7.17
2022-12-28T14:14:34.490Z,7.18
2022-12-28T14:15:41.315Z,7.20
2022-12-28T14:16:45.727Z,7.20
2022-12-28T14:17:51.573Z,7.22
2022-12-28T14:18:54.878Z,7.23
2022-12-28T14:19:58.842Z,7.21
2022-12-28T14:21:04.110Z,7.21
2022-12-28T14:22:30.453Z,7.21
2022-12-28T14:23:36.006Z,7.22
2022-12-28T14:25:00.913Z,7.22
2022-12-28T14:26:08.447Z,7.21
2022-12-28T14:27:11.639Z,7.21
2022-12-28T14:28:25.791Z,7.24
2022-12-28T14:29:33.191Z,7.26
2022-12-28T14:30:43.347Z,7.26
2022-12-28T14:31:46.465Z,7.23
2022-12-28T14:32:49.663Z,7.24
2022-12-28T14:33:58.452Z,7.24
2022-12-28T14:35:02.435Z,7.24
2022-12-28T14:36:08.150Z,7.26
2022-12-28T14:37:35.825Z,7.27
2022-12-28T14:38:45.868Z,7.24
2022-12-28T14:39:49.742Z,7.25
2022-12-28T14:40:55.406Z,7.27
2022-12-28T14:41:59.735Z,7.29
2022-12-28T14:43:17.825Z,7.28
2022-12-28T14:44:28.199Z,7.27
2022-12-28T14:46:07.095Z,7.28
2022-12-28T14:47:43.056Z,7.27
2022-12-28T14:48:46.238Z,7.25
2022-12-28T14:49:49.242Z,7.23
2022-12-28T14:51:01.840Z,7.24
2022-12-28T14:52:07.729Z,7.26
2022-12-28T14:53:18.245Z,7.27
2022-12-28T14:54:28.806Z,7.27
2022-12-28T14:55:34.478Z,7.28
2022-12-28T14:56:38.634Z,7.22
2022-12-28T14:57:44.265Z,7.21
2022-12-28T14:58:55.497Z,7.21
2022-12-28T15:00:04.177Z,7.23
2022-12-28T15:01:09.602Z,7.23
2022-12-28T15:02:49.595Z,7.22
2022-12-28T15:03:57.443Z,7.20
2022-12-28T15:05:02.019Z,7.20
2022-12-28T15:06:05.218Z,7.19
2022-12-28T15:07:10.330Z,7.15
2022-12-28T15:08:13.690Z,7.15
2022-12-28T15:09:17.720Z,7.16
2022-12-28T15:10:20.732Z,7.14
2022-12-28T15:11:26.822Z,7.13
2022-12-28T15:12:29.949Z,7.12
2022-12-28T15:13:33.064Z,7.12
2022-12-28T15:14:36.839Z,7.14
2022-12-28T15:15:39.991Z,7.14
2022-12-28T15:16:43.010Z,7.13
2022-12-28T15:17:49.210Z,7.12
2022-12-28T15:18:53.105Z,7.12
2022-12-28T15:19:56.322Z,7.13
2022-12-28T15:21:04.481Z,7.12
2022-12-28T15:22:07.860Z,7.12
2022-12-28T15:23:13.518Z,7.09
2022-12-28T15:24:20.988Z,7.09
2022-12-28T15:25:26.108Z,7.11
2022-12-28T15:26:29.331Z,7.09
2022-12-28T15:27:32.495Z,7.09
2022-12-28T15:28:36.216Z,7.09
2022-12-28T15:30:04.154Z,7.10